Friday, October 19, 2018, 12:40 AM EDT
Back to Local

KCON, Concord, Concord Municipal Airport

Location: Concord, NH, United States Lat: 43.195
Local Time: 12:40 AM EDT ( 4:40 GMT) Lon: -71.501
Time Zone: US/Eastern Elev: 344 ft

Show me the last for .
Show Decoded

2018-10-18 23:51 METAR KCON 190351Z AUTO 00000KT 10SM CLR M04/M06 A3024 RMK AO2 SLP245 T10391056
                 =
2018-10-18 22:51 METAR KCON 190251Z AUTO 00000KT 10SM CLR M03/M06 A3024 RMK AO2 SLP245 T10331056
                 51005 =
2018-10-18 21:51 METAR KCON 190151Z AUTO 00000KT 10SM CLR M03/M06 A3024 RMK AO2 SLP244 T10331056
                 =
2018-10-18 20:51 METAR KCON 190051Z AUTO 00000KT 10SM CLR M03/M06 A3023 RMK AO2 SLP243 T10281056
                 =
2018-10-18 19:51 METAR KCON 182351Z AUTO 14004KT 10SM CLR M01/M04 A3023 RMK AO2 SLP240 T10111044
                 10067 21011 51014 =
2018-10-18 18:51 METAR KCON 182251Z AUTO 29003KT 10SM CLR 02/M08 A3022 RMK AO2 SLP237 T00221078 =
2018-10-18 17:51 METAR KCON 182151Z AUTO 30007KT 10SM CLR 04/M09 A3021 RMK AO2 SLP232 T00441094 =
2018-10-18 16:51 METAR KCON 182051Z AUTO 30009G16KT 10SM CLR 06/M09 A3019 RMK AO2 SLP225
                 T00611089 53000 =
2018-10-18 15:51 METAR KCON 181951Z AUTO 31014G20KT 10SM CLR 07/M08 A3018 RMK AO2 SLP223
                 T00671083 =
2018-10-18 14:51 METAR KCON 181851Z AUTO 32017G23KT 10SM CLR 06/M09 A3018 RMK AO2 SLP225
                 T00611089 =
2018-10-18 13:51 METAR KCON 181751Z AUTO 31013G23KT 10SM CLR 06/M09 A3018 RMK AO2 PK WND
                 33028/1704 SLP225 T00611089 10061 20011 50000 =
2018-10-18 12:51 METAR KCON 181651Z AUTO 31016G27KT 10SM CLR 06/M08 A3018 RMK AO2 PK WND
                 30028/1635 SLP225 T00561083 =
2018-10-18 11:51 METAR KCON 181551Z AUTO 30018G26KT 10SM CLR 04/M08 A3019 RMK AO2 PK WND
                 30030/1507 SLP227 T00441078 =
2018-10-18 10:51 METAR KCON 181451Z AUTO 30016G25KT 10SM CLR 04/M07 A3018 RMK AO2 PK WND
                 30028/1419 SLP225 T00441072 50016 =
2018-10-18 09:51 METAR KCON 181351Z AUTO 32015G23KT 10SM OVC050 03/M06 A3020 RMK AO2 SLP229
                 T00331061 =
2018-10-18 08:51 METAR KCON 181251Z AUTO 31013KT 10SM BKN049 02/M06 A3017 RMK AO2 SLP221
                 T00221061 =
2018-10-18 07:51 METAR KCON 181151Z AUTO 29012G21KT 10SM BKN048 01/M06 A3014 RMK AO2 SLP209 70004
                 T00111061 10022 20006 51033 =
2018-10-18 06:51 METAR KCON 181051Z AUTO 31015G23KT 10SM FEW043 SCT055 01/M06 A3011 RMK AO2
                 SLP200 T00061061 =
2018-10-18 05:51 METAR KCON 180951Z AUTO 29011G19KT 10SM FEW043 01/M05 A3008 RMK AO2 SLP190
                 T00061050 =
2018-10-18 04:51 METAR KCON 180851Z AUTO 30009G16KT 10SM CLR 01/M04 A3004 RMK AO2 SLP177
                 T00061044 53023 =
2018-10-18 03:51 METAR KCON 180751Z AUTO 29007KT 10SM CLR 01/M04 A3002 RMK AO2 SLP168 T00061039 =
2018-10-18 02:51 METAR KCON 180651Z AUTO 29010KT 10SM SCT085 02/M03 A2999 RMK AO2 SLP157
                 T00171033 =
2018-10-18 01:51 METAR KCON 180551Z AUTO 30008G16KT 10SM FEW045 02/M01 A2997 RMK AO2 SLP152 60003
                 T00221011 10061 20011 51021 =
2018-10-18 00:51 METAR KCON 180451Z AUTO 29006KT 10SM FEW042 02/M01 A2995 RMK AO2 SLP144
                 T00221006 401501006 =

Support USWX by starting your Amazon purchase here.